sensor_id;sensor_type;location;lat;lon;timestamp;pressure;altitude;pressure_sealevel;temperature;humidity
12987;BME280;58897;51.960;5.582;2022-07-29T00:02:15;101388.47;;;17.80;63.32
12987;BME280;58897;51.960;5.582;2022-07-29T00:04:41;101383.00;;;17.80;63.99
12987;BME280;58897;51.960;5.582;2022-07-29T00:07:08;101379.88;;;17.83;63.94
12987;BME280;58897;51.960;5.582;2022-07-29T00:09:35;101377.56;;;17.80;63.77
12987;BME280;58897;51.960;5.582;2022-07-29T00:12:16;101377.44;;;17.67;64.61
12987;BME280;58897;51.960;5.582;2022-07-29T00:14:52;101374.09;;;17.72;64.36
12987;BME280;58897;51.960;5.582;2022-07-29T00:17:18;101372.41;;;17.71;64.17
12987;BME280;58897;51.960;5.582;2022-07-29T00:19:45;101376.59;;;17.67;64.56
12987;BME280;58897;51.960;5.582;2022-07-29T00:22:11;101378.69;;;17.65;64.23
12987;BME280;58897;51.960;5.582;2022-07-29T00:24:38;101374.38;;;17.56;64.47
12987;BME280;58897;51.960;5.582;2022-07-29T00:27:04;101373.97;;;17.59;64.76
12987;BME280;58897;51.960;5.582;2022-07-29T00:29:31;101361.19;;;17.59;64.86
12987;BME280;58897;51.960;5.582;2022-07-29T00:31:59;101359.09;;;17.61;64.81
12987;BME280;58897;51.960;5.582;2022-07-29T00:34:26;101356.75;;;17.58;64.50
12987;BME280;58897;51.960;5.582;2022-07-29T00:37:11;101358.44;;;17.59;64.60
12987;BME280;58897;51.960;5.582;2022-07-29T00:39:38;101347.91;;;17.56;64.77
12987;BME280;58897;51.960;5.582;2022-07-29T00:42:04;101351.19;;;17.52;65.34
12987;BME280;58897;51.960;5.582;2022-07-29T00:44:39;101340.66;;;17.49;65.32
12987;BME280;58897;51.960;5.582;2022-07-29T00:47:06;101337.22;;;17.40;65.34
12987;BME280;58897;51.960;5.582;2022-07-29T00:49:33;101352.63;;;17.48;65.74
12987;BME280;58897;51.960;5.582;2022-07-29T00:52:04;101343.47;;;17.55;65.18
12987;BME280;58897;51.960;5.582;2022-07-29T00:54:32;101343.13;;;17.44;65.64
12987;BME280;58897;51.960;5.582;2022-07-29T00:56:59;101328.63;;;17.43;65.86
12987;BME280;58897;51.960;5.582;2022-07-29T00:59:27;101334.28;;;17.42;65.57
12987;BME280;58897;51.960;5.582;2022-07-29T01:02:00;101328.16;;;17.40;66.11
12987;BME280;58897;51.960;5.582;2022-07-29T01:04:26;101339.44;;;17.30;66.38
12987;BME280;58897;51.960;5.582;2022-07-29T01:06:54;101327.78;;;17.43;65.93
12987;BME280;58897;51.960;5.582;2022-07-29T01:09:21;101333.44;;;17.41;65.85
12987;BME280;58897;51.960;5.582;2022-07-29T01:12:08;101328.38;;;17.38;66.23
12987;BME280;58897;51.960;5.582;2022-07-29T01:14:35;101331.16;;;17.45;66.08
12987;BME280;58897;51.960;5.582;2022-07-29T01:17:11;101335.84;;;17.29;66.42
12987;BME280;58897;51.960;5.582;2022-07-29T01:20:01;101329.88;;;17.19;66.66
12987;BME280;58897;51.960;5.582;2022-07-29T01:25:09;101326.50;;;17.39;66.06
12987;BME280;58897;51.960;5.582;2022-07-29T01:27:51;101338.25;;;17.18;66.72
12987;BME280;58897;51.960;5.582;2022-07-29T01:30:24;101336.09;;;17.35;66.43
12987;BME280;58897;51.960;5.582;2022-07-29T01:32:56;101334.34;;;17.27;66.34
12987;BME280;58897;51.960;5.582;2022-07-29T01:35:28;101324.06;;;17.29;66.26
12987;BME280;58897;51.960;5.582;2022-07-29T01:38:11;101332.53;;;17.34;66.32
12987;BME280;58897;51.960;5.582;2022-07-29T01:40:46;101332.25;;;17.29;66.56
12987;BME280;58897;51.960;5.582;2022-07-29T01:43:23;101341.25;;;17.23;66.89
12987;BME280;58897;51.960;5.582;2022-07-29T01:46:04;101342.75;;;17.25;66.31
12987;BME280;58897;51.960;5.582;2022-07-29T01:48:47;101349.44;;;17.23;66.68
12987;BME280;58897;51.960;5.582;2022-07-29T01:51:25;101353.13;;;17.15;66.95
12987;BME280;58897;51.960;5.582;2022-07-29T01:54:01;101357.94;;;17.13;67.28
12987;BME280;58897;51.960;5.582;2022-07-29T01:56:31;101355.16;;;17.28;66.69
12987;BME280;58897;51.960;5.582;2022-07-29T01:59:01;101357.75;;;17.15;67.00
12987;BME280;58897;51.960;5.582;2022-07-29T02:01:31;101364.84;;;17.09;67.69
12987;BME280;58897;51.960;5.582;2022-07-29T02:04:00;101365.59;;;17.03;67.77
12987;BME280;58897;51.960;5.582;2022-07-29T02:06:29;101370.28;;;17.09;66.36
12987;BME280;58897;51.960;5.582;2022-07-29T02:08:58;101356.19;;;17.06;67.68
12987;BME280;58897;51.960;5.582;2022-07-29T02:11:25;101348.38;;;17.03;69.17
12987;BME280;58897;51.960;5.582;2022-07-29T02:13:52;101339.53;;;17.01;70.34
12987;BME280;58897;51.960;5.582;2022-07-29T02:16:21;101335.31;;;16.98;71.37
12987;BME280;58897;51.960;5.582;2022-07-29T02:18:51;101331.47;;;16.93;71.01
12987;BME280;58897;51.960;5.582;2022-07-29T02:21:21;101323.22;;;16.86;71.28
12987;BME280;58897;51.960;5.582;2022-07-29T02:23:49;101326.59;;;16.88;71.38
12987;BME280;58897;51.960;5.582;2022-07-29T02:26:19;101323.47;;;16.91;71.91
12987;BME280;58897;51.960;5.582;2022-07-29T02:28:47;101324.34;;;16.77;72.32
12987;BME280;58897;51.960;5.582;2022-07-29T02:31:18;101339.06;;;16.76;72.72
12987;BME280;58897;51.960;5.582;2022-07-29T02:33:47;101339.97;;;16.68;71.82
12987;BME280;58897;51.960;5.582;2022-07-29T02:36:16;101336.44;;;16.68;71.95
12987;BME280;58897;51.960;5.582;2022-07-29T02:38:43;101333.22;;;16.64;72.21
12987;BME280;58897;51.960;5.582;2022-07-29T02:41:24;101312.31;;;16.72;71.80
12987;BME280;58897;51.960;5.582;2022-07-29T02:44:01;101310.81;;;16.69;72.71
12987;BME280;58897;51.960;5.582;2022-07-29T02:46:31;101311.69;;;16.70;71.92
12987;BME280;58897;51.960;5.582;2022-07-29T02:49:08;101320.06;;;16.68;72.64
12987;BME280;58897;51.960;5.582;2022-07-29T02:51:43;101312.06;;;16.66;72.41
12987;BME280;58897;51.960;5.582;2022-07-29T02:54:27;101319.59;;;16.64;71.62
12987;BME280;58897;51.960;5.582;2022-07-29T02:56:59;101315.53;;;16.75;71.31
12987;BME280;58897;51.960;5.582;2022-07-29T02:59:27;101316.88;;;16.50;71.72
12987;BME280;58897;51.960;5.582;2022-07-29T03:01:58;101305.84;;;16.73;71.09
12987;BME280;58897;51.960;5.582;2022-07-29T03:04:26;101309.16;;;16.68;71.45
12987;BME280;58897;51.960;5.582;2022-07-29T03:06:57;101307.34;;;16.75;72.57
12987;BME280;58897;51.960;5.582;2022-07-29T03:09:25;101310.34;;;16.51;73.54
12987;BME280;58897;51.960;5.582;2022-07-29T03:11:52;101306.91;;;16.42;74.21
12987;BME280;58897;51.960;5.582;2022-07-29T03:14:20;101294.00;;;16.65;74.49
12987;BME280;58897;51.960;5.582;2022-07-29T03:16:49;101281.72;;;16.55;74.05
12987;BME280;58897;51.960;5.582;2022-07-29T03:19:17;101285.91;;;16.43;75.65
12987;BME280;58897;51.960;5.582;2022-07-29T03:21:44;101286.81;;;16.29;76.00
12987;BME280;58897;51.960;5.582;2022-07-29T03:24:24;101289.69;;;16.27;75.64
12987;BME280;58897;51.960;5.582;2022-07-29T03:26:50;101295.16;;;16.27;75.86
12987;BME280;58897;51.960;5.582;2022-07-29T03:29:17;101293.09;;;16.29;75.69
12987;BME280;58897;51.960;5.582;2022-07-29T03:31:45;101294.59;;;16.32;76.16
12987;BME280;58897;51.960;5.582;2022-07-29T03:34:13;101281.44;;;16.21;76.46
12987;BME280;58897;51.960;5.582;2022-07-29T03:36:40;101273.91;;;16.23;76.74
12987;BME280;58897;51.960;5.582;2022-07-29T03:39:08;101277.97;;;16.27;76.34
12987;BME280;58897;51.960;5.582;2022-07-29T03:41:37;101279.28;;;16.16;76.59
12987;BME280;58897;51.960;5.582;2022-07-29T03:44:06;101282.41;;;16.13;76.47
12987;BME280;58897;51.960;5.582;2022-07-29T03:46:34;101285.47;;;16.25;75.94
12987;BME280;58897;51.960;5.582;2022-07-29T03:49:03;101286.16;;;16.27;75.77
12987;BME280;58897;51.960;5.582;2022-07-29T03:51:30;101280.22;;;16.08;76.43
12987;BME280;58897;51.960;5.582;2022-07-29T03:54:01;101283.91;;;16.16;76.52
12987;BME280;58897;51.960;5.582;2022-07-29T03:56:38;101291.22;;;16.00;76.37
12987;BME280;58897;51.960;5.582;2022-07-29T03:59:06;101295.38;;;16.11;75.51
12987;BME280;58897;51.960;5.582;2022-07-29T04:01:33;101285.28;;;16.12;75.79
12987;BME280;58897;51.960;5.582;2022-07-29T04:04:03;101281.53;;;16.13;76.30
12987;BME280;58897;51.960;5.582;2022-07-29T04:06:40;101270.63;;;16.27;75.46
12987;BME280;58897;51.960;5.582;2022-07-29T04:09:07;101262.81;;;16.24;75.02
12987;BME280;58897;51.960;5.582;2022-07-29T04:11:36;101269.97;;;16.25;75.75
12987;BME280;58897;51.960;5.582;2022-07-29T04:14:24;101272.63;;;16.19;75.79
12987;BME280;58897;51.960;5.582;2022-07-29T04:16:50;101281.16;;;16.16;76.08
12987;BME280;58897;51.960;5.582;2022-07-29T04:19:17;101279.09;;;16.18;76.02
12987;BME280;58897;51.960;5.582;2022-07-29T04:21:43;101277.03;;;16.05;75.79
12987;BME280;58897;51.960;5.582;2022-07-29T04:24:11;101275.72;;;16.01;76.25
12987;BME280;58897;51.960;5.582;2022-07-29T04:26:38;101273.75;;;16.10;75.81
12987;BME280;58897;51.960;5.582;2022-07-29T04:29:04;101276.56;;;16.01;76.33
12987;BME280;58897;51.960;5.582;2022-07-29T04:31:31;101274.31;;;16.05;76.42
12987;BME280;58897;51.960;5.582;2022-07-29T04:33:57;101274.13;;;16.06;76.07
12987;BME280;58897;51.960;5.582;2022-07-29T04:36:24;101270.63;;;16.13;75.76
12987;BME280;58897;51.960;5.582;2022-07-29T04:38:55;101277.50;;;16.08;76.26
12987;BME280;58897;51.960;5.582;2022-07-29T04:41:21;101271.22;;;16.08;75.53
12987;BME280;58897;51.960;5.582;2022-07-29T04:43:48;101281.44;;;16.06;75.54
12987;BME280;58897;51.960;5.582;2022-07-29T04:46:15;101283.78;;;16.09;75.79
12987;BME280;58897;51.960;5.582;2022-07-29T04:48:41;101295.47;;;16.03;75.54
12987;BME280;58897;51.960;5.582;2022-07-29T04:51:08;101299.59;;;16.14;74.64
12987;BME280;58897;51.960;5.582;2022-07-29T04:53:34;101302.41;;;16.05;74.77
12987;BME280;58897;51.960;5.582;2022-07-29T04:56:01;101304.19;;;16.13;73.89
12987;BME280;58897;51.960;5.582;2022-07-29T04:58:28;101307.75;;;15.99;74.41
12987;BME280;58897;51.960;5.582;2022-07-29T05:00:54;101307.19;;;16.03;74.69
12987;BME280;58897;51.960;5.582;2022-07-29T05:03:21;101308.88;;;16.19;74.13
12987;BME280;58897;51.960;5.582;2022-07-29T05:05:47;101297.13;;;16.04;74.75
12987;BME280;58897;51.960;5.582;2022-07-29T05:08:14;101294.03;;;16.22;75.06
12987;BME280;58897;51.960;5.582;2022-07-29T05:10:40;101290.66;;;16.20;74.60
12987;BME280;58897;51.960;5.582;2022-07-29T05:13:07;101292.16;;;16.22;74.36
12987;BME280;58897;51.960;5.582;2022-07-29T05:15:34;101293.38;;;16.20;74.49
12987;BME280;58897;51.960;5.582;2022-07-29T05:18:02;101308.50;;;16.37;74.58
12987;BME280;58897;51.960;5.582;2022-07-29T05:20:29;101319.13;;;16.17;74.91
12987;BME280;58897;51.960;5.582;2022-07-29T05:22:59;101306.63;;;16.23;73.71
12987;BME280;58897;51.960;5.582;2022-07-29T05:25:26;101312.34;;;16.28;73.95
12987;BME280;58897;51.960;5.582;2022-07-29T05:28:10;101312.09;;;16.23;73.69
12987;BME280;58897;51.960;5.582;2022-07-29T05:30:36;101318.00;;;16.26;74.38
12987;BME280;58897;51.960;5.582;2022-07-29T05:33:03;101323.19;;;16.21;74.44
12987;BME280;58897;51.960;5.582;2022-07-29T05:35:29;101309.75;;;16.34;74.31
12987;BME280;58897;51.960;5.582;2022-07-29T05:37:56;101305.84;;;16.43;73.59
12987;BME280;58897;51.960;5.582;2022-07-29T05:40:22;101310.88;;;16.40;74.27
12987;BME280;58897;51.960;5.582;2022-07-29T05:42:49;101303.59;;;16.47;73.79
12987;BME280;58897;51.960;5.582;2022-07-29T05:45:15;101322.31;;;16.50;74.29
12987;BME280;58897;51.960;5.582;2022-07-29T05:47:41;101330.13;;;16.53;75.16
12987;BME280;58897;51.960;5.582;2022-07-29T05:50:08;101330.88;;;16.61;74.37
12987;BME280;58897;51.960;5.582;2022-07-29T05:52:35;101346.59;;;16.59;73.38
12987;BME280;58897;51.960;5.582;2022-07-29T05:55:01;101339.72;;;16.49;73.81
12987;BME280;58897;51.960;5.582;2022-07-29T05:57:30;101353.16;;;16.65;72.92
12987;BME280;58897;51.960;5.582;2022-07-29T05:59:57;101360.47;;;16.79;72.56
12987;BME280;58897;51.960;5.582;2022-07-29T06:02:23;101363.13;;;16.73;72.93
12987;BME280;58897;51.960;5.582;2022-07-29T06:04:50;101363.88;;;16.66;72.56
12987;BME280;58897;51.960;5.582;2022-07-29T06:07:17;101359.16;;;16.75;72.77
12987;BME280;58897;51.960;5.582;2022-07-29T06:09:43;101357.75;;;16.79;72.41
12987;BME280;58897;51.960;5.582;2022-07-29T06:12:10;101349.97;;;16.97;73.06
12987;BME280;58897;51.960;5.582;2022-07-29T06:14:36;101348.09;;;16.98;73.52
12987;BME280;58897;51.960;5.582;2022-07-29T06:17:04;101362.97;;;16.95;74.11
12987;BME280;58897;51.960;5.582;2022-07-29T06:19:34;101365.44;;;16.90;72.11
12987;BME280;58897;51.960;5.582;2022-07-29T06:22:00;101361.84;;;16.90;71.57
12987;BME280;58897;51.960;5.582;2022-07-29T06:24:27;101368.44;;;16.95;72.36
12987;BME280;58897;51.960;5.582;2022-07-29T06:26:53;101355.03;;;17.15;71.98
12987;BME280;58897;51.960;5.582;2022-07-29T06:29:20;101353.72;;;17.11;71.91
12987;BME280;58897;51.960;5.582;2022-07-29T06:31:46;101350.69;;;17.20;71.97
12987;BME280;58897;51.960;5.582;2022-07-29T06:34:12;101339.34;;;17.23;71.31
12987;BME280;58897;51.960;5.582;2022-07-29T06:36:40;101346.19;;;17.34;70.58
12987;BME280;58897;51.960;5.582;2022-07-29T06:39:07;101350.41;;;17.37;70.11
12987;BME280;58897;51.960;5.582;2022-07-29T06:41:34;101343.47;;;17.55;70.60
12987;BME280;58897;51.960;5.582;2022-07-29T06:44:01;101345.91;;;17.50;68.94
12987;BME280;58897;51.960;5.582;2022-07-29T06:46:28;101353.56;;;17.34;71.24
12987;BME280;58897;51.960;5.582;2022-07-29T06:48:55;101357.22;;;17.62;69.21
12987;BME280;58897;51.960;5.582;2022-07-29T06:51:21;101350.66;;;17.84;68.73
12987;BME280;58897;51.960;5.582;2022-07-29T06:53:52;101348.81;;;17.63;69.61
12987;BME280;58897;51.960;5.582;2022-07-29T06:56:26;101352.00;;;17.67;69.55
12987;BME280;58897;51.960;5.582;2022-07-29T06:58:53;101353.59;;;17.82;68.99
12987;BME280;58897;51.960;5.582;2022-07-29T07:01:19;101354.44;;;17.83;69.81
12987;BME280;58897;51.960;5.582;2022-07-29T07:03:47;101347.31;;;18.16;67.12
12987;BME280;58897;51.960;5.582;2022-07-29T07:06:13;101345.50;;;18.64;66.19
12987;BME280;58897;51.960;5.582;2022-07-29T07:08:40;101347.13;;;18.52;66.71
12987;BME280;58897;51.960;5.582;2022-07-29T07:11:07;101347.38;;;18.57;67.61
12987;BME280;58897;51.960;5.582;2022-07-29T07:13:33;101345.25;;;19.00;65.28
12987;BME280;58897;51.960;5.582;2022-07-29T07:16:02;101347.88;;;18.80;64.89
12987;BME280;58897;51.960;5.582;2022-07-29T07:18:29;101355.47;;;18.78;65.63
12987;BME280;58897;51.960;5.582;2022-07-29T07:20:56;101349.81;;;18.86;65.88
12987;BME280;58897;51.960;5.582;2022-07-29T07:23:23;101349.88;;;19.06;64.68
12987;BME280;58897;51.960;5.582;2022-07-29T07:25:50;101337.06;;;19.13;65.57
12987;BME280;58897;51.960;5.582;2022-07-29T07:28:16;101343.94;;;18.96;65.92
12987;BME280;58897;51.960;5.582;2022-07-29T07:30:44;101344.88;;;19.23;64.61
12987;BME280;58897;51.960;5.582;2022-07-29T07:33:11;101354.75;;;19.10;65.16
12987;BME280;58897;51.960;5.582;2022-07-29T07:35:37;101352.66;;;19.26;64.43
12987;BME280;58897;51.960;5.582;2022-07-29T07:38:03;101353.69;;;19.11;64.50
12987;BME280;58897;51.960;5.582;2022-07-29T07:40:32;101352.59;;;19.06;65.00
12987;BME280;58897;51.960;5.582;2022-07-29T07:42:58;101354.75;;;19.17;65.19
12987;BME280;58897;51.960;5.582;2022-07-29T07:45:25;101356.50;;;19.38;63.27
12987;BME280;58897;51.960;5.582;2022-07-29T07:47:51;101358.63;;;19.55;63.02
12987;BME280;58897;51.960;5.582;2022-07-29T07:50:18;101356.34;;;19.85;62.25
12987;BME280;58897;51.960;5.582;2022-07-29T07:52:52;101356.13;;;19.60;63.00
12987;BME280;58897;51.960;5.582;2022-07-29T07:55:20;101358.25;;;19.78;62.63
12987;BME280;58897;51.960;5.582;2022-07-29T07:57:46;101357.38;;;19.91;61.00
12987;BME280;58897;51.960;5.582;2022-07-29T08:00:14;101344.69;;;20.36;60.65
12987;BME280;58897;51.960;5.582;2022-07-29T08:02:41;101341.06;;;20.48;60.88
12987;BME280;58897;51.960;5.582;2022-07-29T08:05:09;101342.63;;;20.75;60.17
12987;BME280;58897;51.960;5.582;2022-07-29T08:07:38;101337.63;;;20.66;59.15
12987;BME280;58897;51.960;5.582;2022-07-29T08:10:05;101341.22;;;20.60;59.93
12987;BME280;58897;51.960;5.582;2022-07-29T08:12:32;101338.47;;;20.66;59.07
12987;BME280;58897;51.960;5.582;2022-07-29T08:14:58;101338.63;;;20.78;60.37
12987;BME280;58897;51.960;5.582;2022-07-29T08:17:25;101331.75;;;21.07;59.35
12987;BME280;58897;51.960;5.582;2022-07-29T08:19:52;101337.44;;;20.67;61.03
12987;BME280;58897;51.960;5.582;2022-07-29T08:22:19;101342.88;;;20.80;59.01
12987;BME280;58897;51.960;5.582;2022-07-29T08:24:45;101333.00;;;21.11;59.17
12987;BME280;58897;51.960;5.582;2022-07-29T08:27:23;101338.22;;;20.74;59.97
12987;BME280;58897;51.960;5.582;2022-07-29T08:30:09;101338.59;;;20.84;59.26
12987;BME280;58897;51.960;5.582;2022-07-29T08:32:36;101335.72;;;22.41;54.93
12987;BME280;58897;51.960;5.582;2022-07-29T08:35:20;101338.41;;;23.13;53.10
12987;BME280;58897;51.960;5.582;2022-07-29T08:37:47;101341.50;;;23.35;51.13
12987;BME280;58897;51.960;5.582;2022-07-29T08:40:13;101332.16;;;23.77;50.70
12987;BME280;58897;51.960;5.582;2022-07-29T08:42:43;101338.81;;;24.11;49.96
12987;BME280;58897;51.960;5.582;2022-07-29T08:45:09;101338.38;;;23.73;51.47
12987;BME280;58897;51.960;5.582;2022-07-29T08:47:38;101350.88;;;23.98;49.96
12987;BME280;58897;51.960;5.582;2022-07-29T08:50:09;101344.09;;;23.48;50.58
12987;BME280;58897;51.960;5.582;2022-07-29T08:52:39;101350.38;;;23.07;52.58
12987;BME280;58897;51.960;5.582;2022-07-29T08:55:07;101351.41;;;22.77;53.15
12987;BME280;58897;51.960;5.582;2022-07-29T08:57:34;101348.13;;;23.16;52.38
12987;BME280;58897;51.960;5.582;2022-07-29T09:00:05;101354.06;;;23.01;51.44
12987;BME280;58897;51.960;5.582;2022-07-29T09:02:40;101357.16;;;22.75;52.57
12987;BME280;58897;51.960;5.582;2022-07-29T09:05:08;101352.22;;;22.65;53.31
12987;BME280;58897;51.960;5.582;2022-07-29T09:07:34;101355.28;;;22.51;54.47
12987;BME280;58897;51.960;5.582;2022-07-29T09:10:01;101354.59;;;22.55;53.88
12987;BME280;58897;51.960;5.582;2022-07-29T09:12:29;101361.38;;;22.78;53.47
12987;BME280;58897;51.960;5.582;2022-07-29T09:15:02;101352.38;;;23.00;53.81
12987;BME280;58897;51.960;5.582;2022-07-29T09:17:45;101341.13;;;23.31;52.98
12987;BME280;58897;51.960;5.582;2022-07-29T09:20:17;101338.84;;;23.58;51.56
12987;BME280;58897;51.960;5.582;2022-07-29T09:22:44;101339.34;;;23.78;51.28
12987;BME280;58897;51.960;5.582;2022-07-29T09:25:34;101352.19;;;24.66;49.00
12987;BME280;58897;51.960;5.582;2022-07-29T09:28:10;101350.03;;;24.56;48.97
12987;BME280;58897;51.960;5.582;2022-07-29T09:33:18;101352.31;;;24.59;48.93
12987;BME280;58897;51.960;5.582;2022-07-29T09:35:44;101353.56;;;25.31;47.34
12987;BME280;58897;51.960;5.582;2022-07-29T09:38:22;101343.00;;;25.45;46.74
12987;BME280;58897;51.960;5.582;2022-07-29T09:40:59;101343.31;;;25.32;48.24
12987;BME280;58897;51.960;5.582;2022-07-29T09:43:32;101340.31;;;25.33;46.99
12987;BME280;58897;51.960;5.582;2022-07-29T09:46:13;101330.72;;;26.35;44.45
12987;BME280;58897;51.960;5.582;2022-07-29T09:48:40;101329.97;;;26.83;41.95
12987;BME280;58897;51.960;5.582;2022-07-29T09:51:17;101329.38;;;27.83;40.76
12987;BME280;58897;51.960;5.582;2022-07-29T09:53:49;101325.13;;;27.44;42.35
12987;BME280;58897;51.960;5.582;2022-07-29T09:56:18;101320.78;;;27.53;41.92
12987;BME280;58897;51.960;5.582;2022-07-29T09:58:45;101328.75;;;27.44;41.78
12987;BME280;58897;51.960;5.582;2022-07-29T10:01:12;101330.88;;;28.38;39.31
12987;BME280;58897;51.960;5.582;2022-07-29T10:03:52;101328.44;;;28.46;39.21
12987;BME280;58897;51.960;5.582;2022-07-29T10:06:18;101331.06;;;28.68;38.60
12987;BME280;58897;51.960;5.582;2022-07-29T10:08:45;101331.22;;;29.13;38.07
12987;BME280;58897;51.960;5.582;2022-07-29T10:11:17;101326.75;;;29.12;36.83
12987;BME280;58897;51.960;5.582;2022-07-29T10:13:46;101333.81;;;29.25;37.46
12987;BME280;58897;51.960;5.582;2022-07-29T10:16:15;101331.31;;;29.38;36.72
12987;BME280;58897;51.960;5.582;2022-07-29T10:18:43;101331.91;;;29.61;36.85
12987;BME280;58897;51.960;5.582;2022-07-29T10:21:13;101325.78;;;29.49;37.77
12987;BME280;58897;51.960;5.582;2022-07-29T10:23:59;101338.72;;;28.51;38.39
12987;BME280;58897;51.960;5.582;2022-07-29T10:26:28;101339.09;;;29.36;37.95
12987;BME280;58897;51.960;5.582;2022-07-29T10:28:55;101335.75;;;29.24;37.63
12987;BME280;58897;51.960;5.582;2022-07-29T10:31:29;101326.06;;;30.13;35.85
12987;BME280;58897;51.960;5.582;2022-07-29T10:36:59;101321.63;;;29.91;35.78
12987;BME280;58897;51.960;5.582;2022-07-29T10:43:21;101322.97;;;30.24;36.06
12987;BME280;58897;51.960;5.582;2022-07-29T10:45:56;101332.13;;;30.55;35.59
12987;BME280;58897;51.960;5.582;2022-07-29T10:48:23;101322.84;;;30.70;34.41
12987;BME280;58897;51.960;5.582;2022-07-29T10:51:04;101324.63;;;30.30;35.30
12987;BME280;58897;51.960;5.582;2022-07-29T10:53:51;101322.69;;;30.21;35.49
12987;BME280;58897;51.960;5.582;2022-07-29T10:56:26;101326.75;;;30.74;34.74
12987;BME280;58897;51.960;5.582;2022-07-29T11:01:50;101328.31;;;31.00;34.85
12987;BME280;58897;51.960;5.582;2022-07-29T11:07:12;101329.63;;;31.17;34.48
12987;BME280;58897;51.960;5.582;2022-07-29T11:09:40;101331.00;;;30.51;36.06
12987;BME280;58897;51.960;5.582;2022-07-29T11:15:09;101333.88;;;29.95;36.15
12987;BME280;58897;51.960;5.582;2022-07-29T11:20:46;101331.59;;;30.38;35.13
12987;BME280;58897;51.960;5.582;2022-07-29T11:23:18;101323.56;;;30.11;35.55
12987;BME280;58897;51.960;5.582;2022-07-29T11:28:54;101321.25;;;30.48;35.68
12987;BME280;58897;51.960;5.582;2022-07-29T11:31:44;101321.00;;;31.09;36.07
12987;BME280;58897;51.960;5.582;2022-07-29T11:34:45;101315.63;;;31.23;34.17
12987;BME280;58897;51.960;5.582;2022-07-29T11:45:04;101317.94;;;31.05;33.29
12987;BME280;58897;51.960;5.582;2022-07-29T11:47:56;101315.78;;;30.87;32.78
12987;BME280;58897;51.960;5.582;2022-07-29T11:50:44;101322.91;;;30.54;32.78
12987;BME280;58897;51.960;5.582;2022-07-29T11:53:14;101314.13;;;31.35;32.65
12987;BME280;58897;51.960;5.582;2022-07-29T11:55:42;101314.91;;;30.18;35.06
12987;BME280;58897;51.960;5.582;2022-07-29T11:58:21;101310.13;;;30.33;36.35
12987;BME280;58897;51.960;5.582;2022-07-29T12:00:51;101315.78;;;30.92;35.12
12987;BME280;58897;51.960;5.582;2022-07-29T12:03:24;101311.47;;;30.56;36.29
12987;BME280;58897;51.960;5.582;2022-07-29T12:06:03;101315.25;;;30.85;34.30
12987;BME280;58897;51.960;5.582;2022-07-29T12:08:39;101314.59;;;30.19;34.92
12987;BME280;58897;51.960;5.582;2022-07-29T12:11:15;101310.69;;;30.35;34.61
12987;BME280;58897;51.960;5.582;2022-07-29T12:13:45;101318.09;;;30.75;34.58
12987;BME280;58897;51.960;5.582;2022-07-29T12:16:14;101313.22;;;30.37;34.04
12987;BME280;58897;51.960;5.582;2022-07-29T12:18:41;101313.88;;;30.78;34.72
12987;BME280;58897;51.960;5.582;2022-07-29T12:21:07;101312.59;;;31.14;33.31
12987;BME280;58897;51.960;5.582;2022-07-29T12:23:37;101316.09;;;30.81;33.76
12987;BME280;58897;51.960;5.582;2022-07-29T12:26:05;101312.41;;;31.00;32.37
12987;BME280;58897;51.960;5.582;2022-07-29T12:28:37;101318.44;;;30.53;33.30
12987;BME280;58897;51.960;5.582;2022-07-29T12:31:04;101316.75;;;30.63;33.05
12987;BME280;58897;51.960;5.582;2022-07-29T12:33:31;101314.38;;;30.95;33.10
12987;BME280;58897;51.960;5.582;2022-07-29T12:36:00;101303.16;;;30.31;33.69
12987;BME280;58897;51.960;5.582;2022-07-29T12:38:42;101312.84;;;30.69;33.85
12987;BME280;58897;51.960;5.582;2022-07-29T12:41:09;101320.72;;;29.25;36.05
12987;BME280;58897;51.960;5.582;2022-07-29T12:43:36;101312.69;;;30.05;35.46
12987;BME280;58897;51.960;5.582;2022-07-29T12:46:13;101311.03;;;29.93;34.88
12987;BME280;58897;51.960;5.582;2022-07-29T12:48:42;101312.28;;;29.00;37.67
12987;BME280;58897;51.960;5.582;2022-07-29T12:51:10;101317.16;;;28.68;38.09
12987;BME280;58897;51.960;5.582;2022-07-29T12:53:38;101315.25;;;28.27;39.41
12987;BME280;58897;51.960;5.582;2022-07-29T12:56:05;101317.44;;;28.20;40.00
12987;BME280;58897;51.960;5.582;2022-07-29T12:58:46;101315.66;;;28.03;41.22
12987;BME280;58897;51.960;5.582;2022-07-29T13:01:17;101315.25;;;27.90;42.10
12987;BME280;58897;51.960;5.582;2022-07-29T13:03:58;101314.72;;;27.61;43.42
12987;BME280;58897;51.960;5.582;2022-07-29T13:06:34;101314.13;;;27.54;43.54
12987;BME280;58897;51.960;5.582;2022-07-29T13:09:12;101311.13;;;28.34;42.10
12987;BME280;58897;51.960;5.582;2022-07-29T13:11:48;101307.50;;;28.81;40.37
12987;BME280;58897;51.960;5.582;2022-07-29T13:14:41;101299.16;;;28.75;39.27
12987;BME280;58897;51.960;5.582;2022-07-29T13:19:40;101310.88;;;27.62;40.49
12987;BME280;58897;51.960;5.582;2022-07-29T13:22:09;101308.91;;;27.94;39.61
12987;BME280;58897;51.960;5.582;2022-07-29T13:24:59;101309.56;;;29.25;38.56
12987;BME280;58897;51.960;5.582;2022-07-29T13:27:30;101306.53;;;29.32;37.98
12987;BME280;58897;51.960;5.582;2022-07-29T13:29:59;101317.31;;;29.13;37.94
12987;BME280;58897;51.960;5.582;2022-07-29T13:32:28;101303.50;;;29.69;39.25
12987;BME280;58897;51.960;5.582;2022-07-29T13:34:56;101304.06;;;29.71;38.63
12987;BME280;58897;51.960;5.582;2022-07-29T13:37:23;101295.97;;;29.29;38.37
12987;BME280;58897;51.960;5.582;2022-07-29T13:39:50;101291.53;;;29.38;38.49
12987;BME280;58897;51.960;5.582;2022-07-29T13:42:19;101300.97;;;29.32;38.73
12987;BME280;58897;51.960;5.582;2022-07-29T13:44:45;101313.06;;;28.81;37.75